Terminal Aerodrome Forecast
Issued by NWS

Home | Current Version | Previous Version | Text Only | Print | Product List | Glossary On
Versions: 1 2 3 4 5 6 7 8 9 10 11 12 13
073
FTUS42 TJSJ 171138
TAFISX
TAF
TISX 171138Z 1712/1812 13011KT P6SM VCSH SCT030 SCT250
      TEMPO 1712/1715 3SM SHRA BKN010
     FM171500 11015G22KT P6SM VCSH SCT020 BKN040
      TEMPO 1715/1718 2SM TSRA BKN010CB OVC030
     FM180000 10012KT P6SM SCT025=

USA.gov is the U.S. government's official web portal to all federal, state and local government web resources and services.